Time;durP1;ratioP1;P1;durP2;ratioP2;P2;SDS_P1;SDS_P2;PMS_P1;PMS_P2;Temp;Humidity;BMP_temperature;BMP_pressure;BME280_temperature;BME280_humidity;BME280_pressure;Samples;Min_cycle;Max_cycle;Signal;HPM_P1;HPM_P2
2022/06/26 00:00:19;;;;;;;;;;;19.00;99.90;;;;;;5023038;28;20583;-80
2022/06/26 00:02:48;;;;;;;;;;;18.90;99.90;;;;;;5041603;28;20058;-80
2022/06/26 00:05:14;;;;;;;;;;;18.90;99.90;;;;;;5023652;28;20794;-79
2022/06/26 00:07:39;;;;;;;;;;;18.90;99.90;;;;;;5018202;28;19928;-80
2022/06/26 00:10:06;;;;;;;;;;;18.90;99.90;;;;;;5039854;28;19935;-79
2022/06/26 00:12:32;;;;;;;;;;;18.90;99.90;;;;;;5035974;28;20639;-80
2022/06/26 00:14:58;;;;;;;;;;;18.80;99.90;;;;;;5019575;28;19932;-79
2022/06/26 00:17:24;;;;;;;;;;;18.90;99.90;;;;;;5018490;28;19931;-80
2022/06/26 00:19:50;;;;;;;;;;;18.90;99.90;;;;;;5014895;28;19940;-80
2022/06/26 00:22:17;;;;;;;;;;;18.80;99.90;;;;;;5030496;28;19967;-80
2022/06/26 00:24:43;;;;;;;;;;;18.80;99.90;;;;;;5029318;28;19986;-80
2022/06/26 00:27:08;;;;;;;;;;;18.80;99.90;;;;;;5031303;28;20012;-80
2022/06/26 00:29:34;;;;;;;;;;;18.90;99.90;;;;;;5048282;28;19928;-79
2022/06/26 00:32:00;;;;;;;;;;;18.90;99.90;;;;;;5032494;28;20755;-80
2022/06/26 00:34:27;;;;;;;;;;;18.90;99.90;;;;;;5032890;28;19932;-79
2022/06/26 00:36:52;;;;;;;;;;;18.80;99.90;;;;;;5030168;28;20063;-80
2022/06/26 00:39:18;;;;;;;;;;;18.80;99.90;;;;;;5033931;28;20526;-80
2022/06/26 00:41:44;;;;;;;;;;;18.90;99.90;;;;;;5031488;28;19932;-80
2022/06/26 00:44:17;;;;;;;;;;;18.70;99.90;;;;;;5046668;28;19936;-80
2022/06/26 00:46:43;;;;;;;;;;;18.80;99.90;;;;;;5033805;28;20748;-80
2022/06/26 00:49:08;;;;;;;;;;;18.80;99.90;;;;;;5050198;28;19972;-79
2022/06/26 00:51:35;;;;;;;;;;;18.80;99.90;;;;;;5053318;28;20126;-80
2022/06/26 00:54:04;;;;;;;;;;;18.80;99.90;;;;;;5014752;28;19973;-80
2022/06/26 00:56:29;;;;;;;;;;;18.80;99.90;;;;;;5029305;28;20019;-80
2022/06/26 00:58:55;;;;;;;;;;;18.70;99.90;;;;;;5028131;28;20301;-80
2022/06/26 01:01:21;;;;;;;;;;;18.70;99.90;;;;;;5020365;28;20009;-79
2022/06/26 01:03:47;;;;;;;;;;;18.70;99.90;;;;;;5038033;28;20599;-80
2022/06/26 01:06:12;;;;;;;;;;;18.70;99.90;;;;;;5021467;28;19935;-80
2022/06/26 01:08:38;;;;;;;;;;;18.70;99.90;;;;;;5002157;28;19928;-79
2022/06/26 01:11:17;;;;;;;;;;;18.70;99.90;;;;;;5039125;28;20306;-80
2022/06/26 01:13:50;;;;;;;;;;;18.60;99.90;;;;;;5018236;28;19928;-80
2022/06/26 01:16:19;;;;;;;;;;;18.70;99.90;;;;;;5015907;28;19928;-79
2022/06/26 01:18:47;;;;;;;;;;;18.70;99.90;;;;;;4999206;28;19935;-80
2022/06/26 01:21:13;;;;;;;;;;;18.70;99.90;;;;;;5020397;28;20755;-79
2022/06/26 01:23:39;;;;;;;;;;;18.80;99.90;;;;;;5022495;28;20078;-79
2022/06/26 01:26:04;;;;;;;;;;;18.60;99.90;;;;;;5006640;28;19924;-80
2022/06/26 01:28:30;;;;;;;;;;;18.40;99.90;;;;;;5019576;28;19929;-80
2022/06/26 01:30:56;;;;;;;;;;;18.70;99.90;;;;;;5004949;28;19971;-84
2022/06/26 01:33:22;;;;;;;;;;;19.10;99.90;;;;;;5021874;28;19935;-80
2022/06/26 01:35:48;;;;;;;;;;;19.10;99.90;;;;;;5004137;28;20039;-78
2022/06/26 01:38:21;;;;;;;;;;;19.20;99.90;;;;;;5019001;28;20404;-79
2022/06/26 01:40:48;;;;;;;;;;;19.10;99.90;;;;;;5016028;28;20305;-79
2022/06/26 01:43:15;;;;;;;;;;;19.10;99.90;;;;;;5023166;28;19928;-79
2022/06/26 01:45:42;;;;;;;;;;;19.20;99.90;;;;;;5021830;28;19936;-78
2022/06/26 01:48:07;;;;;;;;;;;19.20;99.90;;;;;;5022750;28;19932;-80
2022/06/26 01:50:33;;;;;;;;;;;19.20;99.90;;;;;;5019169;28;20010;-79
2022/06/26 01:52:59;;;;;;;;;;;19.20;99.90;;;;;;5015433;28;19929;-80
2022/06/26 01:55:24;;;;;;;;;;;19.20;99.90;;;;;;5037712;28;20285;-82
2022/06/26 01:57:50;;;;;;;;;;;19.30;99.90;;;;;;5041379;28;19933;-85
2022/06/26 02:00:16;;;;;;;;;;;19.20;99.90;;;;;;5038131;28;19943;-89
2022/06/26 02:02:41;;;;;;;;;;;19.10;99.90;;;;;;5036155;28;19932;-85
2022/06/26 02:05:07;;;;;;;;;;;19.10;99.90;;;;;;5029395;28;19936;-85
2022/06/26 02:07:33;;;;;;;;;;;19.10;99.90;;;;;;5035253;28;20441;-84
2022/06/26 02:15:27;;;;;;;;;;;19.10;99.90;;;;;;5034966;28;20022;-83
2022/06/26 02:17:54;;;;;;;;;;;19.00;99.90;;;;;;5036802;28;19928;-84
2022/06/26 02:20:20;;;;;;;;;;;19.10;99.90;;;;;;5052073;28;20031;-84
2022/06/26 02:22:45;;;;;;;;;;;19.10;99.90;;;;;;4993024;28;20309;-84
2022/06/26 02:25:11;;;;;;;;;;;19.10;99.90;;;;;;5037491;28;19943;-83
2022/06/26 02:27:37;;;;;;;;;;;19.10;99.90;;;;;;5034141;28;19928;-83
2022/06/26 02:30:03;;;;;;;;;;;19.20;99.90;;;;;;5036207;28;19929;-83
2022/06/26 02:32:28;;;;;;;;;;;19.20;99.90;;;;;;5039473;28;20477;-83
2022/06/26 02:34:54;;;;;;;;;;;19.30;99.90;;;;;;5033244;28;20400;-83
2022/06/26 02:37:19;;;;;;;;;;;19.30;99.90;;;;;;5036556;28;19925;-82
2022/06/26 02:39:45;;;;;;;;;;;19.20;99.90;;;;;;5035719;28;19965;-83
2022/06/26 02:42:11;;;;;;;;;;;19.10;99.90;;;;;;5036450;28;19932;-83
2022/06/26 02:44:36;;;;;;;;;;;19.20;99.90;;;;;;5019877;28;19925;-83
2022/06/26 02:47:02;;;;;;;;;;;19.10;99.90;;;;;;5034097;28;20027;-83
2022/06/26 02:49:28;;;;;;;;;;;19.20;99.90;;;;;;5036672;28;20684;-83
2022/06/26 02:51:53;;;;;;;;;;;19.10;99.90;;;;;;5035918;28;19925;-83
2022/06/26 02:54:19;;;;;;;;;;;19.10;99.90;;;;;;5037928;28;19986;-82
2022/06/26 02:56:45;;;;;;;;;;;19.10;99.90;;;;;;5036364;28;20028;-83
2022/06/26 02:59:10;;;;;;;;;;;19.20;99.90;;;;;;5037910;28;20020;-83
2022/06/26 03:01:36;;;;;;;;;;;19.20;99.90;;;;;;5038112;28;19929;-83
2022/06/26 03:04:02;;;;;;;;;;;19.20;99.90;;;;;;5030165;28;20428;-83
2022/06/26 03:06:27;;;;;;;;;;;19.20;99.90;;;;;;5036651;28;19941;-84
2022/06/26 03:08:53;;;;;;;;;;;19.10;99.90;;;;;;5033389;28;19982;-84
2022/06/26 03:11:19;;;;;;;;;;;19.00;99.90;;;;;;5015592;28;20351;-84
2022/06/26 03:13:44;;;;;;;;;;;19.00;99.90;;;;;;4995225;28;19940;-82
2022/06/26 03:16:10;;;;;;;;;;;18.90;99.90;;;;;;5029716;28;19949;-83
2022/06/26 03:18:36;;;;;;;;;;;18.80;99.90;;;;;;5028700;28;19974;-82
2022/06/26 03:21:01;;;;;;;;;;;18.80;99.90;;;;;;5035339;28;19928;-83
2022/06/26 03:26:14;;;;;;;;;;;18.80;99.90;;;;;;5032343;28;19924;-82
2022/06/26 03:28:40;;;;;;;;;;;18.80;99.90;;;;;;5032744;28;20336;-83
2022/06/26 03:31:06;;;;;;;;;;;18.70;99.90;;;;;;5033217;28;19935;-83
2022/06/26 03:33:31;;;;;;;;;;;18.60;99.90;;;;;;5020454;28;19932;-83
2022/06/26 03:35:57;;;;;;;;;;;18.60;99.90;;;;;;5035738;28;19928;-82
2022/06/26 03:38:23;;;;;;;;;;;18.60;99.90;;;;;;5038497;28;19939;-82
2022/06/26 03:40:49;;;;;;;;;;;18.50;99.90;;;;;;5031191;28;19932;-83
2022/06/26 03:43:15;;;;;;;;;;;18.40;99.90;;;;;;5030308;28;20722;-82
2022/06/26 03:45:41;;;;;;;;;;;18.40;99.90;;;;;;5027251;28;20441;-83
2022/06/26 03:48:07;;;;;;;;;;;18.40;99.90;;;;;;5027055;28;19989;-81
2022/06/26 03:50:32;;;;;;;;;;;18.40;99.90;;;;;;5050978;28;19939;-82
2022/06/26 03:52:58;;;;;;;;;;;18.30;99.90;;;;;;5031502;28;19986;-82
2022/06/26 03:55:24;;;;;;;;;;;18.30;99.90;;;;;;5028742;28;19971;-82
2022/06/26 03:57:50;;;;;;;;;;;18.30;99.90;;;;;;5032721;28;19924;-82
2022/06/26 04:00:17;;;;;;;;;;;18.20;99.90;;;;;;5032599;28;19959;-82
2022/06/26 04:02:42;;;;;;;;;;;18.20;99.90;;;;;;5030537;28;19928;-82
2022/06/26 04:05:08;;;;;;;;;;;18.20;99.90;;;;;;5027836;28;20924;-81
2022/06/26 04:07:34;;;;;;;;;;;18.20;99.90;;;;;;5031894;28;19936;-82
2022/06/26 04:10:00;;;;;;;;;;;18.10;99.90;;;;;;5030914;28;19955;-82
2022/06/26 04:12:26;;;;;;;;;;;18.20;99.90;;;;;;5035885;28;19992;-82
2022/06/26 04:14:52;;;;;;;;;;;18.10;99.90;;;;;;5016488;28;19932;-81
2022/06/26 04:17:17;;;;;;;;;;;18.20;99.90;;;;;;5027427;28;19943;-82
2022/06/26 04:19:43;;;;;;;;;;;18.10;99.90;;;;;;5031059;28;19928;-81
2022/06/26 04:22:09;;;;;;;;;;;18.00;99.90;;;;;;5030991;28;19928;-82
2022/06/26 04:24:34;;;;;;;;;;;18.00;99.90;;;;;;5031597;28;19932;-82
2022/06/26 04:27:00;;;;;;;;;;;18.00;99.90;;;;;;5028665;28;20293;-82
2022/06/26 04:29:26;;;;;;;;;;;18.00;99.90;;;;;;5030443;28;20356;-82
2022/06/26 04:31:52;;;;;;;;;;;18.10;99.90;;;;;;5029267;28;19932;-81
2022/06/26 04:34:20;;;;;;;;;;;18.00;99.90;;;;;;5034542;28;19999;-82
2022/06/26 04:36:46;;;;;;;;;;;18.00;99.90;;;;;;5046521;28;20091;-82
2022/06/26 04:39:12;;;;;;;;;;;18.00;99.90;;;;;;5029781;28;19940;-82
2022/06/26 04:41:39;;;;;;;;;;;18.10;99.90;;;;;;5029597;28;19932;-82
2022/06/26 04:44:05;;;;;;;;;;;18.20;99.90;;;;;;5049178;28;19955;-82
2022/06/26 04:46:32;;;;;;;;;;;18.60;99.90;;;;;;5028658;28;19975;-82
2022/06/26 04:48:57;;;;;;;;;;;18.40;99.90;;;;;;5032275;28;19928;-82
2022/06/26 04:51:23;;;;;;;;;;;18.30;99.90;;;;;;5048974;28;19966;-81
2022/06/26 04:53:49;;;;;;;;;;;18.20;99.90;;;;;;5047190;28;20603;-81
2022/06/26 04:56:14;;;;;;;;;;;18.10;99.90;;;;;;5027606;28;19928;-81
2022/06/26 04:58:40;;;;;;;;;;;18.10;99.90;;;;;;5026869;28;19971;-83
2022/06/26 05:01:06;;;;;;;;;;;18.10;99.90;;;;;;5050025;28;19928;-83
2022/06/26 05:03:32;;;;;;;;;;;18.10;99.90;;;;;;5030448;28;19943;-81
2022/06/26 05:05:57;;;;;;;;;;;18.10;99.90;;;;;;5054899;28;19928;-82
2022/06/26 05:08:23;;;;;;;;;;;18.30;99.90;;;;;;5030200;28;20039;-81
2022/06/26 05:10:49;;;;;;;;;;;18.20;99.90;;;;;;5031002;28;19928;-83
2022/06/26 05:13:15;;;;;;;;;;;18.20;99.90;;;;;;5008794;28;20712;-81
2022/06/26 05:15:40;;;;;;;;;;;18.30;99.90;;;;;;5049464;28;19932;-81
2022/06/26 05:18:06;;;;;;;;;;;20.00;99.90;;;;;;5034535;28;20065;-82
2022/06/26 05:20:32;;;;;;;;;;;21.00;99.90;;;;;;5032729;28;19932;-81
2022/06/26 05:22:57;;;;;;;;;;;22.30;99.90;;;;;;5031976;28;20493;-80
2022/06/26 05:25:23;;;;;;;;;;;22.90;99.90;;;;;;5031210;28;20656;-81
2022/06/26 05:27:49;;;;;;;;;;;23.80;99.90;;;;;;5029509;28;20298;-82
2022/06/26 05:30:15;;;;;;;;;;;23.30;99.90;;;;;;5049617;28;19932;-82
2022/06/26 05:32:40;;;;;;;;;;;22.70;99.90;;;;;;5027684;28;20407;-82
2022/06/26 05:35:06;;;;;;;;;;;21.50;99.90;;;;;;5032467;28;20511;-80
2022/06/26 05:37:32;;;;;;;;;;;20.90;99.90;;;;;;5031497;28;19940;-81
2022/06/26 05:39:58;;;;;;;;;;;20.60;99.90;;;;;;5030751;28;20039;-81
2022/06/26 05:42:23;;;;;;;;;;;20.20;99.90;;;;;;5030552;28;19928;-81
2022/06/26 05:44:49;;;;;;;;;;;19.90;99.90;;;;;;5046469;28;19943;-81
2022/06/26 05:47:15;;;;;;;;;;;19.90;99.90;;;;;;5029111;28;19928;-81
2022/06/26 05:49:40;;;;;;;;;;;19.90;99.90;;;;;;5028055;28;19955;-80
2022/06/26 05:52:06;;;;;;;;;;;20.20;99.90;;;;;;5026632;28;20409;-79
2022/06/26 05:54:32;;;;;;;;;;;20.70;99.90;;;;;;5030256;28;20466;-80
2022/06/26 05:56:58;;;;;;;;;;;21.00;99.90;;;;;;5032102;28;19956;-79
2022/06/26 05:59:24;;;;;;;;;;;21.30;99.90;;;;;;5050937;28;20506;-81
2022/06/26 06:01:49;;;;;;;;;;;21.20;99.90;;;;;;5048660;28;19939;-80
2022/06/26 06:04:15;;;;;;;;;;;21.30;99.90;;;;;;5032897;28;19928;-80
2022/06/26 06:06:41;;;;;;;;;;;20.90;99.90;;;;;;5055776;28;19967;-81
2022/06/26 06:09:07;;;;;;;;;;;21.20;99.90;;;;;;5033784;28;19971;-82
2022/06/26 06:11:32;;;;;;;;;;;21.20;99.90;;;;;;5031069;28;19932;-81
2022/06/26 06:13:58;;;;;;;;;;;20.90;99.90;;;;;;5034890;28;19928;-81
2022/06/26 06:16:24;;;;;;;;;;;20.90;99.90;;;;;;5029405;28;19943;-79
2022/06/26 06:18:50;;;;;;;;;;;20.80;99.90;;;;;;5031687;28;19964;-81
2022/06/26 06:21:16;;;;;;;;;;;20.80;99.90;;;;;;5029466;28;20081;-82
2022/06/26 06:23:43;;;;;;;;;;;20.80;99.90;;;;;;5029900;28;20696;-79
2022/06/26 06:26:11;;;;;;;;;;;20.50;99.90;;;;;;5026822;28;19928;-80
2022/06/26 06:28:37;;;;;;;;;;;20.40;99.90;;;;;;5027550;28;19947;-80
2022/06/26 06:31:03;;;;;;;;;;;20.30;99.90;;;;;;5028208;28;20018;-81
2022/06/26 06:33:29;;;;;;;;;;;20.10;99.90;;;;;;5026367;28;20392;-81
2022/06/26 06:35:55;;;;;;;;;;;19.90;99.90;;;;;;5024542;28;19974;-82
2022/06/26 06:38:21;;;;;;;;;;;19.70;99.90;;;;;;5021388;28;19987;-79
2022/06/26 06:40:47;;;;;;;;;;;19.80;99.90;;;;;;5027376;28;19929;-81
2022/06/26 06:43:13;;;;;;;;;;;19.70;99.90;;;;;;5007035;28;19936;-81
2022/06/26 06:45:39;;;;;;;;;;;19.60;99.90;;;;;;5037281;28;20325;-79
2022/06/26 06:48:05;;;;;;;;;;;19.60;99.90;;;;;;5015896;28;19963;-79
2022/06/26 06:50:31;;;;;;;;;;;19.70;99.90;;;;;;5011662;28;20046;-79
2022/06/26 06:52:56;;;;;;;;;;;19.80;99.90;;;;;;5014805;28;19935;-80
2022/06/26 06:55:22;;;;;;;;;;;19.80;99.90;;;;;;5016629;28;19934;-80
2022/06/26 06:57:48;;;;;;;;;;;19.80;99.90;;;;;;5015778;28;20355;-82
2022/06/26 07:00:14;;;;;;;;;;;19.80;99.90;;;;;;5011916;28;19932;-82
2022/06/26 07:02:40;;;;;;;;;;;19.70;99.90;;;;;;5014805;28;20514;-82
2022/06/26 07:05:06;;;;;;;;;;;19.70;99.90;;;;;;5016249;28;19928;-81
2022/06/26 07:07:32;;;;;;;;;;;19.60;99.90;;;;;;5018419;28;19943;-81
2022/06/26 07:09:58;;;;;;;;;;;19.50;99.90;;;;;;5016628;28;21076;-81
2022/06/26 07:12:24;;;;;;;;;;;19.90;99.90;;;;;;5020342;28;19977;-80
2022/06/26 07:14:49;;;;;;;;;;;19.90;99.90;;;;;;5017435;28;20019;-77
2022/06/26 07:17:15;;;;;;;;;;;20.00;99.90;;;;;;5012374;28;20051;-80
2022/06/26 07:19:41;;;;;;;;;;;20.10;99.90;;;;;;5018245;28;20415;-81
2022/06/26 07:22:07;;;;;;;;;;;20.00;99.90;;;;;;5023122;28;20010;-80
2022/06/26 07:24:32;;;;;;;;;;;19.70;99.90;;;;;;5020903;28;19940;-80
2022/06/26 07:26:58;;;;;;;;;;;19.70;99.90;;;;;;5020400;28;20062;-80
2022/06/26 07:29:24;;;;;;;;;;;19.90;99.90;;;;;;5020216;28;20040;-80
2022/06/26 07:31:50;;;;;;;;;;;20.30;99.90;;;;;;5024093;28;19928;-83
2022/06/26 07:34:18;;;;;;;;;;;20.80;99.90;;;;;;5028687;28;20555;-81
2022/06/26 07:36:45;;;;;;;;;;;21.30;99.90;;;;;;5032738;28;19936;-81
2022/06/26 07:39:12;;;;;;;;;;;21.40;99.90;;;;;;5032430;28;19925;-81
2022/06/26 07:41:38;;;;;;;;;;;21.80;99.90;;;;;;5032280;28;20027;-81
2022/06/26 07:44:04;;;;;;;;;;;22.20;99.90;;;;;;5033516;28;19935;-81
2022/06/26 07:46:30;;;;;;;;;;;22.20;99.90;;;;;;5037552;28;19928;-80
2022/06/26 07:48:56;;;;;;;;;;;22.40;99.90;;;;;;5017562;28;19929;-81
2022/06/26 07:51:21;;;;;;;;;;;22.80;99.90;;;;;;5031600;28;19932;-82
2022/06/26 07:53:47;;;;;;;;;;;22.60;99.90;;;;;;5015459;28;19928;-81
2022/06/26 07:56:13;;;;;;;;;;;23.00;99.90;;;;;;4999949;28;20448;-80
2022/06/26 07:58:39;;;;;;;;;;;23.20;99.90;;;;;;5007665;28;19960;-80
2022/06/26 08:01:04;;;;;;;;;;;22.80;99.90;;;;;;4987799;28;20841;-80
2022/06/26 08:03:31;;;;;;;;;;;22.80;99.90;;;;;;5002054;28;19939;-80
2022/06/26 08:05:56;;;;;;;;;;;23.20;99.90;;;;;;5004118;28;19983;-80
2022/06/26 08:08:22;;;;;;;;;;;23.20;99.90;;;;;;5003279;28;19932;-81
2022/06/26 08:10:48;;;;;;;;;;;23.50;99.90;;;;;;5003496;28;19933;-81
2022/06/26 08:13:14;;;;;;;;;;;23.00;99.90;;;;;;5007196;28;19932;-84
2022/06/26 08:15:40;;;;;;;;;;;22.30;99.90;;;;;;5006907;28;19928;-83
2022/06/26 08:18:07;;;;;;;;;;;22.30;99.90;;;;;;5023971;28;19981;-81
2022/06/26 08:20:33;;;;;;;;;;;22.80;99.90;;;;;;5008763;28;19924;-82
2022/06/26 08:23:01;;;;;;;;;;;22.60;99.90;;;;;;5027968;28;19975;-81
2022/06/26 08:25:27;;;;;;;;;;;22.60;99.90;;;;;;5030845;28;20022;-82
2022/06/26 08:27:53;;;;;;;;;;;23.00;99.90;;;;;;5026282;28;19928;-83
2022/06/26 08:30:19;;;;;;;;;;;23.20;99.90;;;;;;5027002;28;19935;-83
2022/06/26 08:32:45;;;;;;;;;;;23.60;99.90;;;;;;5017165;28;19929;-80
2022/06/26 08:35:11;;;;;;;;;;;23.60;99.90;;;;;;5035696;28;20778;-77
2022/06/26 08:37:37;;;;;;;;;;;23.80;99.90;;;;;;5028758;28;19928;-81
2022/06/26 08:40:03;;;;;;;;;;;23.60;99.90;;;;;;5012948;28;20322;-82
2022/06/26 08:42:30;;;;;;;;;;;23.80;99.90;;;;;;4996314;28;19928;-81
2022/06/26 08:44:59;;;;;;;;;;;23.80;99.90;;;;;;5008682;28;19928;-81
2022/06/26 08:47:25;;;;;;;;;;;24.00;99.90;;;;;;5031417;28;20569;-82
2022/06/26 08:49:55;;;;;;;;;;;24.00;99.90;;;;;;5002016;28;19932;-80
2022/06/26 08:52:21;;;;;;;;;;;24.00;99.90;;;;;;5013735;28;19928;-81
2022/06/26 08:54:48;;;;;;;;;;;24.10;99.90;;;;;;5010734;28;19928;-81
2022/06/26 08:57:17;;;;;;;;;;;23.80;99.90;;;;;;5011771;28;20074;-80
2022/06/26 08:59:43;;;;;;;;;;;24.20;99.90;;;;;;5012105;28;19935;-79
2022/06/26 09:02:09;;;;;;;;;;;24.30;99.90;;;;;;5028362;28;19928;-83
2022/06/26 09:04:39;;;;;;;;;;;24.50;99.90;;;;;;5007825;28;20404;-82
2022/06/26 09:07:08;;;;;;;;;;;24.60;99.90;;;;;;5041633;28;20726;-82
2022/06/26 09:09:36;;;;;;;;;;;24.60;99.90;;;;;;5014107;28;19967;-80
2022/06/26 09:12:02;;;;;;;;;;;25.10;99.90;;;;;;5031403;28;19952;-82
2022/06/26 09:14:28;;;;;;;;;;;24.70;99.90;;;;;;5051872;28;19928;-83
2022/06/26 09:16:54;;;;;;;;;;;24.00;99.90;;;;;;5056258;28;19939;-80
2022/06/26 09:19:23;;;;;;;;;;;24.00;99.90;;;;;;5032902;28;20285;-80
2022/06/26 09:21:49;;;;;;;;;;;23.80;99.90;;;;;;5030065;28;20246;-82
2022/06/26 09:24:16;;;;;;;;;;;23.30;99.90;;;;;;5054789;28;19940;-80
2022/06/26 09:26:42;;;;;;;;;;;23.10;99.90;;;;;;5053129;28;19940;-80
2022/06/26 09:29:20;;;;;;;;;;;23.70;99.90;;;;;;5048901;28;19932;-80
2022/06/26 09:31:46;;;;;;;;;;;24.00;99.90;;;;;;5054045;28;19981;-81
2022/06/26 09:34:22;;;;;;;;;;;24.20;99.90;;;;;;5034420;28;20376;-82
2022/06/26 09:37:01;;;;;;;;;;;24.20;99.90;;;;;;5037416;28;19942;-80
2022/06/26 09:39:29;;;;;;;;;;;24.50;99.90;;;;;;5034904;28;19974;-81
2022/06/26 09:41:55;;;;;;;;;;;24.90;99.90;;;;;;5060253;28;19933;-81
2022/06/26 09:44:21;;;;;;;;;;;25.20;99.90;;;;;;5041369;28;20643;-81
2022/06/26 09:49:54;;;;;;;;;;;25.20;99.90;;;;;;5035061;28;19939;-81
2022/06/26 09:52:20;;;;;;;;;;;25.00;99.90;;;;;;5039463;28;20754;-81
2022/06/26 09:54:46;;;;;;;;;;;24.70;99.90;;;;;;5034986;28;19928;-81
2022/06/26 09:57:13;;;;;;;;;;;24.50;99.90;;;;;;5053919;28;20027;-80
2022/06/26 09:59:39;;;;;;;;;;;24.10;99.90;;;;;;5058924;28;19936;-80
2022/06/26 10:07:34;;;;;;;;;;;24.20;99.90;;;;;;5052904;28;20762;-82
2022/06/26 10:10:00;;;;;;;;;;;24.00;99.90;;;;;;5054831;28;19932;-80
2022/06/26 10:12:26;;;;;;;;;;;23.90;99.90;;;;;;5055302;28;20032;-78
2022/06/26 10:14:53;;;;;;;;;;;23.60;99.90;;;;;;5058999;28;19978;-80
2022/06/26 10:17:25;;;;;;;;;;;23.90;99.90;;;;;;5051490;28;20963;-80
2022/06/26 10:19:52;;;;;;;;;;;24.20;99.90;;;;;;5052670;28;19999;-80
2022/06/26 10:22:18;;;;;;;;;;;24.30;99.90;;;;;;5060266;28;20206;-80
2022/06/26 10:24:51;;;;;;;;;;;24.30;99.90;;;;;;5040092;28;20347;-80
2022/06/26 10:27:22;;;;;;;;;;;24.30;99.90;;;;;;5048526;28;20708;-81
2022/06/26 10:29:47;;;;;;;;;;;24.60;99.90;;;;;;5052603;28;19985;-80
2022/06/26 10:32:21;;;;;;;;;;;24.50;99.90;;;;;;5061169;28;20408;-80
2022/06/26 10:34:53;;;;;;;;;;;24.20;99.90;;;;;;5054402;28;19967;-80
2022/06/26 10:37:19;;;;;;;;;;;24.30;99.90;;;;;;5040277;28;20169;-80
2022/06/26 10:39:45;;;;;;;;;;;24.40;99.90;;;;;;5058682;28;20397;-81
2022/06/26 10:45:06;;;;;;;;;;;24.60;99.90;;;;;;5050865;28;19927;-80
2022/06/26 10:47:39;;;;;;;;;;;24.70;99.90;;;;;;5052964;28;21111;-80
2022/06/26 10:50:05;;;;;;;;;;;24.60;99.90;;;;;;5055047;28;19974;-81
2022/06/26 10:52:31;;;;;;;;;;;24.40;99.90;;;;;;5027877;28;21003;-79
2022/06/26 10:55:00;;;;;;;;;;;24.50;99.90;;;;;;5052047;28;19933;-79
2022/06/26 10:57:31;;;;;;;;;;;24.30;99.90;;;;;;5013389;28;19983;-80
2022/06/26 10:59:58;;;;;;;;;;;24.60;99.90;;;;;;5055505;28;19936;-80
2022/06/26 11:02:24;;;;;;;;;;;24.80;99.90;;;;;;5052080;28;19967;-80
2022/06/26 11:04:51;;;;;;;;;;;25.00;99.90;;;;;;5054376;28;20069;-81
2022/06/26 11:07:17;;;;;;;;;;;24.80;99.90;;;;;;5059120;28;19955;-81
2022/06/26 11:09:43;;;;;;;;;;;24.50;99.90;;;;;;5041067;28;19928;-81
2022/06/26 11:12:09;;;;;;;;;;;24.30;99.90;;;;;;5057678;28;19929;-80
2022/06/26 11:14:34;;;;;;;;;;;24.20;99.90;;;;;;5043034;28;20397;-80
2022/06/26 11:17:00;;;;;;;;;;;24.30;99.90;;;;;;5039382;28;19997;-80
2022/06/26 11:19:30;;;;;;;;;;;24.50;99.90;;;;;;5054040;28;20007;-80
2022/06/26 11:22:06;;;;;;;;;;;24.80;99.90;;;;;;5036879;28;19933;-80
2022/06/26 11:24:32;;;;;;;;;;;25.20;99.90;;;;;;5035906;28;19932;-80
2022/06/26 11:26:57;;;;;;;;;;;25.40;99.90;;;;;;5052736;28;20028;-80
2022/06/26 11:29:23;;;;;;;;;;;25.40;99.90;;;;;;5031651;28;20440;-80
2022/06/26 11:31:49;;;;;;;;;;;25.70;99.90;;;;;;5035729;28;20306;-80
2022/06/26 11:34:15;;;;;;;;;;;26.10;99.90;;;;;;5030138;28;20641;-80
2022/06/26 11:37:10;;;;;;;;;;;25.80;99.90;;;;;;5029448;28;19928;-79
2022/06/26 11:39:37;;;;;;;;;;;25.80;99.90;;;;;;5021744;28;20238;-80
2022/06/26 11:42:12;;;;;;;;;;;25.60;99.90;;;;;;5053375;28;19928;-81
2022/06/26 11:44:45;;;;;;;;;;;25.80;99.90;;;;;;5050938;28;19932;-81
2022/06/26 11:47:11;;;;;;;;;;;26.00;99.90;;;;;;5041349;28;19929;-81
2022/06/26 11:49:37;;;;;;;;;;;26.10;99.90;;;;;;5040178;28;19928;-80
2022/06/26 11:52:03;;;;;;;;;;;26.00;99.90;;;;;;5036535;28;19928;-81
2022/06/26 11:54:29;;;;;;;;;;;25.80;99.90;;;;;;5050855;28;19967;-80
2022/06/26 11:56:55;;;;;;;;;;;25.90;99.90;;;;;;5033351;28;20704;-82
2022/06/26 11:59:21;;;;;;;;;;;25.80;99.90;;;;;;5040880;28;20838;-82
2022/06/26 12:01:50;;;;;;;;;;;26.10;99.90;;;;;;5022673;28;20015;-78
2022/06/26 12:04:16;;;;;;;;;;;26.30;99.90;;;;;;5032784;28;20751;-82
2022/06/26 12:06:48;;;;;;;;;;;26.00;99.90;;;;;;5039834;28;19932;-81
2022/06/26 12:09:20;;;;;;;;;;;26.10;99.90;;;;;;5055370;28;19928;-82
2022/06/26 12:11:46;;;;;;;;;;;25.80;99.90;;;;;;5050331;28;20425;-81
2022/06/26 12:14:12;;;;;;;;;;;25.60;99.90;;;;;;5028001;28;20397;-81
2022/06/26 12:16:49;;;;;;;;;;;25.70;99.90;;;;;;5017977;28;19932;-78
2022/06/26 12:19:15;;;;;;;;;;;25.80;99.90;;;;;;5037180;28;19935;-81
2022/06/26 12:21:44;;;;;;;;;;;25.80;99.90;;;;;;5038653;28;19928;-81
2022/06/26 12:24:13;;;;;;;;;;;25.60;99.90;;;;;;5020289;28;19935;-81
2022/06/26 12:26:39;;;;;;;;;;;25.70;99.90;;;;;;5059984;28;19985;-81
2022/06/26 12:29:09;;;;;;;;;;;25.50;99.90;;;;;;5011808;28;20646;-82
2022/06/26 12:31:35;;;;;;;;;;;25.30;99.90;;;;;;5021096;28;19928;-81
2022/06/26 12:34:04;;;;;;;;;;;25.10;99.90;;;;;;5040055;28;19935;-81
2022/06/26 12:36:30;;;;;;;;;;;25.10;99.90;;;;;;5039649;28;20465;-81
2022/06/26 12:38:55;;;;;;;;;;;24.70;99.90;;;;;;5036529;28;19929;-81
2022/06/26 12:41:21;;;;;;;;;;;24.70;99.90;;;;;;5038050;28;19963;-82
2022/06/26 12:43:47;;;;;;;;;;;24.40;99.90;;;;;;5036310;28;19935;-80
2022/06/26 12:46:13;;;;;;;;;;;24.30;99.90;;;;;;5037077;28;20919;-81
2022/06/26 12:48:39;;;;;;;;;;;24.20;99.90;;;;;;5043127;28;19928;-81
2022/06/26 12:51:04;;;;;;;;;;;24.00;99.90;;;;;;5043597;28;20393;-82
2022/06/26 12:53:30;;;;;;;;;;;23.90;99.90;;;;;;5059788;28;19967;-81
2022/06/26 12:55:59;;;;;;;;;;;23.90;99.90;;;;;;5042021;28;19936;-80
2022/06/26 12:58:26;;;;;;;;;;;23.80;99.90;;;;;;5041001;28;19932;-80
2022/06/26 13:00:52;;;;;;;;;;;23.80;99.90;;;;;;5040943;28;19924;-80
2022/06/26 13:03:18;;;;;;;;;;;23.80;99.90;;;;;;5054825;28;19936;-80
2022/06/26 13:05:44;;;;;;;;;;;23.80;99.90;;;;;;5054644;28;19928;-79
2022/06/26 13:08:12;;;;;;;;;;;23.80;99.90;;;;;;5023486;28;20369;-80
2022/06/26 13:10:38;;;;;;;;;;;23.80;99.90;;;;;;5014695;28;20032;-78
2022/06/26 13:13:04;;;;;;;;;;;23.90;99.90;;;;;;5024836;28;19928;-79
2022/06/26 13:15:30;;;;;;;;;;;23.90;99.90;;;;;;5035968;28;20826;-80
2022/06/26 13:17:55;;;;;;;;;;;23.80;99.90;;;;;;5018955;28;19929;-80
2022/06/26 13:20:21;;;;;;;;;;;23.80;99.90;;;;;;5034464;28;19929;-80
2022/06/26 13:22:47;;;;;;;;;;;23.50;99.90;;;;;;5038387;28;19928;-81
2022/06/26 13:25:13;;;;;;;;;;;23.40;99.90;;;;;;5058456;28;19934;-80
2022/06/26 13:27:38;;;;;;;;;;;23.40;99.90;;;;;;5063984;28;20317;-80
2022/06/26 13:30:04;;;;;;;;;;;23.60;99.90;;;;;;5058771;28;19935;-80
2022/06/26 13:32:30;;;;;;;;;;;23.60;99.90;;;;;;5027826;28;19928;-79
2022/06/26 13:34:56;;;;;;;;;;;23.60;99.90;;;;;;5059366;28;20829;-80
2022/06/26 13:37:21;;;;;;;;;;;23.70;99.90;;;;;;5037689;28;20635;-80
2022/06/26 13:39:47;;;;;;;;;;;23.80;99.90;;;;;;5021241;28;19928;-81
2022/06/26 13:42:13;;;;;;;;;;;23.60;99.90;;;;;;5014085;28;19929;-79
2022/06/26 13:44:38;;;;;;;;;;;23.60;99.90;;;;;;5030522;28;20759;-80
2022/06/26 13:47:04;;;;;;;;;;;23.40;99.90;;;;;;5040288;28;19932;-80
2022/06/26 13:49:30;;;;;;;;;;;23.40;99.90;;;;;;5038922;28;19924;-80
2022/06/26 13:51:56;;;;;;;;;;;23.30;99.90;;;;;;5041692;28;19939;-79
2022/06/26 13:54:21;;;;;;;;;;;23.20;99.90;;;;;;5041777;28;19934;-81
2022/06/26 13:56:47;;;;;;;;;;;23.00;99.90;;;;;;5022271;28;20525;-81
2022/06/26 13:59:13;;;;;;;;;;;22.80;99.90;;;;;;5038180;28;19928;-80
2022/06/26 14:01:38;;;;;;;;;;;22.80;99.90;;;;;;5058037;28;19928;-81
2022/06/26 14:04:05;;;;;;;;;;;22.80;99.90;;;;;;5020552;28;20361;-80
2022/06/26 14:06:30;;;;;;;;;;;22.80;99.90;;;;;;5037419;28;20023;-80
2022/06/26 14:08:56;;;;;;;;;;;22.70;99.90;;;;;;5052169;28;19928;-81
2022/06/26 14:11:22;;;;;;;;;;;22.80;99.90;;;;;;5026650;28;20448;-80
2022/06/26 14:13:48;;;;;;;;;;;23.10;99.90;;;;;;5038313;28;19932;-81
2022/06/26 14:16:14;;;;;;;;;;;23.00;99.90;;;;;;5055685;28;20462;-80
2022/06/26 14:18:39;;;;;;;;;;;23.20;99.90;;;;;;5059445;28;19928;-79
2022/06/26 14:21:07;;;;;;;;;;;23.50;99.90;;;;;;5058730;28;20019;-80
2022/06/26 14:26:18;;;;;;;;;;;23.80;99.90;;;;;;5056620;28;19935;-79
2022/06/26 14:28:44;;;;;;;;;;;23.70;99.90;;;;;;5031633;28;19932;-79
2022/06/26 14:31:09;;;;;;;;;;;23.70;99.90;;;;;;5038234;28;19928;-80
2022/06/26 14:33:35;;;;;;;;;;;23.60;99.90;;;;;;5040318;28;19934;-80